West Cornforth, United Kingdom
Current Conditions -  °F | °C
As of 10:50 AM on Wednesday 22 Oct 2014 (Local Time) from EGNV Reporting Station
Few Clouds Few Clouds  
Wind Chill: 52°   Ceiling: Unl
Heat Index: 52°   Visibility: 6mi
Dew Point: 41°   Wind: 9mph
Humidity: 67%   Direction: 180°S
Pressure: 30.15"   Gusts: NA
Location:  54.7°N, 1.52°W
Report Text: EGNV 220950Z 18008KT 9999 FEW040 11/05 Q1021
Loading
Personal Weather Stations






























Interactive Weather Map
Tropical Storm Tracking
New forecast layout! Learn more

10-Day Weather Forecast

Advertisements
Track Severe Weather on mobile